createdAt,value
2019-03-09T00:03:24.619Z,3.9
2019-03-09T00:08:53.173Z,3.9
2019-03-09T00:14:20.552Z,3.9
2019-03-09T00:19:48.032Z,4
2019-03-09T00:25:15.484Z,4
2019-03-09T00:30:43.967Z,4
2019-03-09T00:36:12.457Z,4
2019-03-09T00:41:39.996Z,4.1
2019-03-09T00:47:07.374Z,4.1
2019-03-09T00:52:34.893Z,4.1
2019-03-09T00:58:02.929Z,4.2
2019-03-09T01:03:30.827Z,4.2
2019-03-09T01:08:58.291Z,4.2
2019-03-09T01:14:25.776Z,4.3
2019-03-09T01:19:53.238Z,4.3
2019-03-09T01:25:20.827Z,4.3
2019-03-09T01:30:49.210Z,4.4
2019-03-09T01:36:16.770Z,4.4
2019-03-09T01:41:44.200Z,4.4
2019-03-09T01:47:12.706Z,4.4
2019-03-09T01:52:40.304Z,4.4
2019-03-09T01:58:07.632Z,4.4
2019-03-09T02:03:35.135Z,4.4
2019-03-09T02:09:02.702Z,4.4
2019-03-09T02:14:30.317Z,4.5
2019-03-09T02:19:57.613Z,4.5
2019-03-09T02:25:26.085Z,4.5
2019-03-09T02:30:54.569Z,4.5
2019-03-09T02:36:23.070Z,4.5
2019-03-09T02:41:50.856Z,4.5
2019-03-09T02:47:18.025Z,4.5
2019-03-09T02:52:45.502Z,4.5
2019-03-09T02:58:13.046Z,4.5
2019-03-09T03:03:40.484Z,4.5
2019-03-09T03:09:07.964Z,4.5
2019-03-09T03:14:36.445Z,4.5
2019-03-09T03:20:03.904Z,4.5
2019-03-09T03:25:31.569Z,4.5
2019-03-09T03:30:58.903Z,4.5
2019-03-09T03:41:55.969Z,4.5
2019-03-09T03:47:23.357Z,4.5
2019-03-09T03:52:50.895Z,4.5
2019-03-09T03:58:19.362Z,4.5
2019-03-09T04:03:46.803Z,4.5
2019-03-09T04:09:14.347Z,4.5
2019-03-09T04:14:41.884Z,4.5
2019-03-09T04:20:10.463Z,4.6
2019-03-09T04:25:38.823Z,4.6
2019-03-09T04:31:07.330Z,4.6
2019-03-09T04:36:35.890Z,4.7
2019-03-09T04:42:03.347Z,4.7
2019-03-09T04:47:30.801Z,4.8
2019-03-09T04:52:59.383Z,4.9
2019-03-09T04:58:26.827Z,5
2019-03-09T05:03:55.398Z,5
2019-03-09T05:09:23.018Z,5.1
2019-03-09T05:14:52.852Z,5.2
2019-03-09T05:20:19.790Z,5.3
2019-03-09T05:25:47.625Z,5.3
2019-03-09T05:31:16.158Z,5.3
2019-03-09T05:36:44.710Z,5.3
2019-03-09T05:42:13.321Z,5.3
2019-03-09T05:47:41.806Z,5.3
2019-03-09T05:53:10.359Z,5.3
2019-03-09T05:58:37.933Z,5.3
2019-03-09T06:04:06.457Z,5.3
2019-03-09T06:09:35.088Z,5.3
2019-03-09T06:15:02.729Z,5.3
2019-03-09T06:20:31.108Z,5.3
2019-03-09T06:25:58.681Z,5.3
2019-03-09T06:31:26.194Z,5.3
2019-03-09T06:36:53.767Z,5.4
2019-03-09T06:42:22.272Z,5.4
2019-03-09T06:47:49.886Z,5.4
2019-03-09T06:53:17.453Z,5.4
2019-03-09T06:58:45.981Z,5.5
2019-03-09T07:04:13.568Z,5.5
2019-03-09T07:09:42.214Z,5.5
2019-03-09T07:15:09.690Z,5.5
2019-03-09T07:20:37.304Z,5.6
2019-03-09T07:26:05.818Z,5.6
2019-03-09T07:31:33.398Z,5.6
2019-03-09T07:37:01.078Z,5.6
2019-03-09T07:42:28.603Z,5.5
2019-03-09T07:47:57.133Z,5.6
2019-03-09T07:53:24.850Z,5.6
2019-03-09T07:58:56.772Z,5.3
2019-03-09T08:04:20.899Z,4.9
2019-03-09T08:09:47.296Z,4.5
2019-03-09T08:15:14.719Z,4.3
2019-03-09T08:20:43.210Z,4.2
2019-03-09T08:26:10.751Z,4.3
2019-03-09T08:31:39.189Z,4.4
2019-03-09T08:37:07.695Z,4.5
2019-03-09T08:42:35.232Z,4.7
2019-03-09T08:48:02.713Z,4.8
2019-03-09T08:53:31.198Z,4.9
2019-03-09T08:58:58.032Z,5.1
2019-03-09T09:04:25.292Z,5.4
2019-03-09T09:09:53.879Z,5.6
2019-03-09T09:15:21.512Z,5.7
2019-03-09T09:20:50.302Z,5.8
2019-03-09T09:26:17.748Z,5.9
2019-03-09T09:31:46.362Z,6
2019-03-09T09:37:14.963Z,6.1
2019-03-09T09:42:43.487Z,6.2
2019-03-09T09:48:12.157Z,6.3
2019-03-09T09:53:40.865Z,6.3
2019-03-09T09:59:08.418Z,6.4
2019-03-09T10:04:36.048Z,6.5
2019-03-09T10:10:04.811Z,6.6
2019-03-09T10:15:32.449Z,6.6
2019-03-09T10:20:59.996Z,6.7
2019-03-09T10:26:28.677Z,6.7
2019-03-09T10:31:57.343Z,6.7
2019-03-09T10:37:26.089Z,6.7
2019-03-09T10:42:54.648Z,6.7
2019-03-09T10:48:22.314Z,6.9
2019-03-09T10:53:50.006Z,7.1
2019-03-09T10:59:18.747Z,7.2
2019-03-09T11:04:46.629Z,7.3
2019-03-09T11:10:14.126Z,7.2
2019-03-09T11:15:42.963Z,7.1
2019-03-09T11:21:11.515Z,7
2019-03-09T11:26:39.194Z,7
2019-03-09T11:32:06.956Z,6.9
2019-03-09T11:37:35.551Z,6.8
2019-03-09T11:43:04.344Z,6.8
2019-03-09T11:48:32.081Z,6.8
2019-03-09T11:54:00.543Z,6.9
2019-03-09T11:59:29.217Z,6.9
2019-03-09T12:04:56.907Z,6.9
2019-03-09T12:10:25.772Z,6.9
2019-03-09T12:15:54.429Z,6.8
2019-03-09T12:21:22.980Z,6.8
2019-03-09T12:26:50.675Z,6.7
2019-03-09T12:32:18.262Z,6.7
2019-03-09T12:37:47.003Z,6.7
2019-03-09T12:43:14.519Z,6.7
2019-03-09T12:48:49.082Z,6.7
2019-03-09T12:54:10.916Z,6.6
2019-03-09T12:59:38.553Z,6.7
2019-03-09T13:05:06.233Z,6.7
2019-03-09T13:10:33.911Z,6.8
2019-03-09T13:16:01.522Z,6.8
2019-03-09T13:21:29.185Z,6.8
2019-03-09T13:26:56.879Z,6.9
2019-03-09T13:32:24.548Z,6.8
2019-03-09T13:37:55.598Z,6.8
2019-03-09T13:43:21.192Z,6.8
2019-03-09T13:48:49.582Z,6.8
2019-03-09T13:54:17.256Z,6.9
2019-03-09T13:59:44.950Z,6.9
2019-03-09T14:05:12.579Z,6.8
2019-03-09T14:10:41.439Z,6.8
2019-03-09T14:16:09.983Z,6.8
2019-03-09T14:21:38.610Z,6.7
2019-03-09T14:27:07.256Z,6.6
2019-03-09T14:32:34.919Z,6.4
2019-03-09T14:38:02.578Z,6.1
2019-03-09T14:43:30.103Z,5.9
2019-03-09T14:48:58.629Z,5.6
2019-03-09T14:54:27.205Z,5.4
2019-03-09T14:59:55.767Z,5.3
2019-03-09T15:05:24.302Z,5.1
2019-03-09T15:10:51.798Z,4.9
2019-03-09T15:16:22.357Z,4.7
2019-03-09T15:21:48.935Z,4.6
2019-03-09T15:27:16.402Z,4.4
2019-03-09T15:32:43.798Z,4.3
2019-03-09T15:38:11.269Z,4.2
2019-03-09T15:43:39.734Z,4
2019-03-09T15:49:07.353Z,3.8
2019-03-09T15:54:34.623Z,3.6
2019-03-09T16:00:03.120Z,3.4
2019-03-09T16:05:31.495Z,3.3
2019-03-09T16:10:59.881Z,3.2
2019-03-09T16:16:27.314Z,3.2
2019-03-09T16:21:54.843Z,3.1
2019-03-09T16:27:23.225Z,3.1
2019-03-09T16:32:50.566Z,3
2019-03-09T16:38:17.918Z,3
2019-03-09T16:43:46.376Z,3
2019-03-09T16:49:14.144Z,3
2019-03-09T16:54:42.125Z,3.1
2019-03-09T17:00:09.554Z,3.2
2019-03-09T17:05:37.041Z,3.2
2019-03-09T17:11:05.462Z,3.1
2019-03-09T17:16:32.847Z,3
2019-03-09T17:22:00.528Z,2.8
2019-03-09T17:27:28.658Z,2.7
2019-03-09T17:32:57.053Z,2.6
2019-03-09T17:38:24.411Z,2.5
2019-03-09T17:43:52.841Z,2.5
2019-03-09T17:49:22.262Z,2.5
2019-03-09T17:54:48.523Z,2.5
2019-03-09T18:00:15.905Z,2.5
2019-03-09T18:11:10.627Z,2.5
2019-03-09T18:16:38.066Z,2.5
2019-03-09T18:22:06.604Z,2.6
2019-03-09T18:27:33.813Z,2.6
2019-03-09T18:33:01.212Z,2.7
2019-03-09T18:38:28.478Z,2.7
2019-03-09T18:43:56.920Z,2.7
2019-03-09T18:49:25.258Z,2.7
2019-03-09T18:54:53.662Z,2.8
2019-03-09T19:00:22.134Z,2.8
2019-03-09T19:05:49.467Z,2.8
2019-03-09T19:11:17.828Z,2.8
2019-03-09T19:16:46.248Z,2.9
2019-03-09T19:22:13.588Z,3
2019-03-09T19:27:42.017Z,3
2019-03-09T19:33:10.443Z,3.1
2019-03-09T19:38:37.797Z,3.1
2019-03-09T19:44:06.224Z,3.1
2019-03-09T19:49:33.623Z,3
2019-03-09T19:55:02.405Z,3
2019-03-09T20:00:29.431Z,3
2019-03-09T20:05:56.838Z,3
2019-03-09T20:11:25.189Z,2.9
2019-03-09T20:16:53.553Z,2.9
2019-03-09T20:22:21.052Z,2.9
2019-03-09T20:27:48.385Z,2.8
2019-03-09T20:33:15.786Z,2.8
2019-03-09T20:38:44.141Z,2.8
2019-03-09T20:44:11.466Z,2.8
2019-03-09T20:49:39.939Z,2.8
2019-03-09T20:55:08.286Z,2.8
2019-03-09T21:00:35.733Z,2.9
2019-03-09T21:06:04.274Z,2.9
2019-03-09T21:11:32.601Z,3
2019-03-09T21:16:59.996Z,3
2019-03-09T21:22:27.252Z,3.1
2019-03-09T21:27:54.774Z,3.2
2019-03-09T21:33:23.090Z,3.2
2019-03-09T21:38:51.199Z,3.2
2019-03-09T21:44:18.906Z,3.3
2019-03-09T21:49:46.536Z,3.4
2019-03-09T21:55:14.903Z,3.5
2019-03-09T22:00:43.219Z,3.6
2019-03-09T22:06:10.624Z,3.6
2019-03-09T22:11:38.118Z,3.7
2019-03-09T22:17:05.546Z,3.8
2019-03-09T22:22:33.987Z,3.8
2019-03-09T22:28:02.491Z,3.9
2019-03-09T22:33:30.866Z,3.9
2019-03-09T22:38:59.329Z,4
2019-03-09T22:44:26.958Z,4
2019-03-09T22:49:55.225Z,4.1
2019-03-09T22:55:23.837Z,4.1
2019-03-09T23:00:52.130Z,4.1
2019-03-09T23:06:20.642Z,4.1
2019-03-09T23:11:48.171Z,4.1
2019-03-09T23:17:16.583Z,4.1
2019-03-09T23:22:44.946Z,4.1
2019-03-09T23:28:12.472Z,4.2
2019-03-09T23:33:39.974Z,4.2
2019-03-09T23:39:07.552Z,4.3
2019-03-09T23:44:34.938Z,4.3
2019-03-09T23:50:03.468Z,4.3
2019-03-09T23:55:32.267Z,4.3
